sensor_id;sensor_type;location;lat;lon;timestamp;pressure;altitude;pressure_sealevel;temperature;humidity
63500;BME280;49654;51.142;14.924;2022-07-22T00:01:10;99381.84;;;21.55;68.47
63500;BME280;49654;51.142;14.924;2022-07-22T00:03:37;99393.28;;;21.60;68.52
63500;BME280;49654;51.142;14.924;2022-07-22T00:06:04;99410.72;;;21.61;68.53
63500;BME280;49654;51.142;14.924;2022-07-22T00:08:31;99411.13;;;21.53;68.86
63500;BME280;49654;51.142;14.924;2022-07-22T00:11:00;99409.59;;;21.40;68.43
63500;BME280;49654;51.142;14.924;2022-07-22T00:13:27;99408.72;;;21.52;68.43
63500;BME280;49654;51.142;14.924;2022-07-22T00:15:54;99404.16;;;21.47;68.63
63500;BME280;49654;51.142;14.924;2022-07-22T00:18:20;99385.22;;;21.21;68.60
63500;BME280;49654;51.142;14.924;2022-07-22T00:20:47;99376.72;;;21.19;69.38
63500;BME280;49654;51.142;14.924;2022-07-22T00:23:14;99411.25;;;21.30;68.77
63500;BME280;49654;51.142;14.924;2022-07-22T00:25:41;99417.34;;;21.30;68.61
63500;BME280;49654;51.142;14.924;2022-07-22T00:28:09;99421.69;;;21.36;68.24
63500;BME280;49654;51.142;14.924;2022-07-22T00:30:36;99421.38;;;21.33;68.13
63500;BME280;49654;51.142;14.924;2022-07-22T00:33:03;99420.69;;;21.25;68.11
63500;BME280;49654;51.142;14.924;2022-07-22T00:35:30;99421.94;;;21.23;68.24
63500;BME280;49654;51.142;14.924;2022-07-22T00:37:57;99416.25;;;21.14;68.59
63500;BME280;49654;51.142;14.924;2022-07-22T00:40:24;99413.44;;;21.04;68.93
63500;BME280;49654;51.142;14.924;2022-07-22T00:42:51;99413.81;;;20.96;69.45
63500;BME280;49654;51.142;14.924;2022-07-22T00:45:20;99420.34;;;20.93;69.70
63500;BME280;49654;51.142;14.924;2022-07-22T00:47:47;99397.69;;;20.81;69.67
63500;BME280;49654;51.142;14.924;2022-07-22T00:50:14;99415.78;;;20.89;69.74
63500;BME280;49654;51.142;14.924;2022-07-22T00:52:43;99411.47;;;20.83;70.01
63500;BME280;49654;51.142;14.924;2022-07-22T00:55:10;99391.34;;;20.65;70.65
63500;BME280;49654;51.142;14.924;2022-07-22T00:57:37;99380.34;;;20.56;70.74
63500;BME280;49654;51.142;14.924;2022-07-22T01:00:06;99395.13;;;20.57;71.03
63500;BME280;49654;51.142;14.924;2022-07-22T01:02:35;99407.16;;;20.65;71.11
63500;BME280;49654;51.142;14.924;2022-07-22T01:05:02;99405.22;;;20.60;71.91
63500;BME280;49654;51.142;14.924;2022-07-22T01:07:29;99416.44;;;20.67;71.37
63500;BME280;49654;51.142;14.924;2022-07-22T01:09:56;99413.25;;;20.65;71.53
63500;BME280;49654;51.142;14.924;2022-07-22T01:12:23;99413.78;;;20.67;71.33
63500;BME280;49654;51.142;14.924;2022-07-22T01:14:51;99414.50;;;20.63;71.61
63500;BME280;49654;51.142;14.924;2022-07-22T01:17:17;99414.41;;;20.58;71.83
63500;BME280;49654;51.142;14.924;2022-07-22T01:19:46;99412.56;;;20.46;72.05
63500;BME280;49654;51.142;14.924;2022-07-22T01:22:14;99412.34;;;20.36;72.17
63500;BME280;49654;51.142;14.924;2022-07-22T01:24:41;99410.06;;;20.16;72.16
63500;BME280;49654;51.142;14.924;2022-07-22T01:27:08;99404.59;;;20.06;72.48
63500;BME280;49654;51.142;14.924;2022-07-22T01:29:35;99411.00;;;19.87;72.74
63500;BME280;49654;51.142;14.924;2022-07-22T01:32:03;99419.72;;;19.75;73.62
63500;BME280;49654;51.142;14.924;2022-07-22T01:34:30;99384.59;;;19.51;74.23
63500;BME280;49654;51.142;14.924;2022-07-22T01:36:56;99400.13;;;19.71;73.00
63500;BME280;49654;51.142;14.924;2022-07-22T01:39:25;99426.34;;;19.90;72.64
63500;BME280;49654;51.142;14.924;2022-07-22T01:41:52;99422.38;;;19.87;72.71
63500;BME280;49654;51.142;14.924;2022-07-22T01:44:18;99420.88;;;19.91;72.94
63500;BME280;49654;51.142;14.924;2022-07-22T01:46:45;99425.31;;;19.91;72.53
63500;BME280;49654;51.142;14.924;2022-07-22T01:49:12;99419.81;;;19.81;73.31
63500;BME280;49654;51.142;14.924;2022-07-22T01:51:40;99409.75;;;19.66;74.25
63500;BME280;49654;51.142;14.924;2022-07-22T01:54:07;99422.09;;;19.65;74.40
63500;BME280;49654;51.142;14.924;2022-07-22T01:56:35;99417.72;;;19.59;74.67
63500;BME280;49654;51.142;14.924;2022-07-22T01:59:02;99424.56;;;19.60;74.90
63500;BME280;49654;51.142;14.924;2022-07-22T02:01:29;99423.56;;;19.61;74.97
63500;BME280;49654;51.142;14.924;2022-07-22T02:03:56;99428.47;;;19.46;75.17
63500;BME280;49654;51.142;14.924;2022-07-22T02:06:23;99432.31;;;19.32;75.85
63500;BME280;49654;51.142;14.924;2022-07-22T02:08:50;99425.41;;;19.19;76.05
63500;BME280;49654;51.142;14.924;2022-07-22T02:11:17;99439.94;;;19.21;75.73
63500;BME280;49654;51.142;14.924;2022-07-22T02:13:45;99438.41;;;19.14;76.61
63500;BME280;49654;51.142;14.924;2022-07-22T02:16:12;99439.25;;;19.14;76.99
63500;BME280;49654;51.142;14.924;2022-07-22T02:18:39;99387.09;;;18.93;76.20
63500;BME280;49654;51.142;14.924;2022-07-22T02:21:06;99425.44;;;19.31;75.81
63500;BME280;49654;51.142;14.924;2022-07-22T02:23:33;99442.06;;;19.43;75.50
63500;BME280;49654;51.142;14.924;2022-07-22T02:26:00;99443.16;;;19.23;76.47
63500;BME280;49654;51.142;14.924;2022-07-22T02:28:27;99428.56;;;19.09;76.79
63500;BME280;49654;51.142;14.924;2022-07-22T02:30:55;99428.78;;;19.08;76.68
63500;BME280;49654;51.142;14.924;2022-07-22T02:33:22;99371.84;;;18.65;77.09
63500;BME280;49654;51.142;14.924;2022-07-22T02:35:49;99437.94;;;19.05;77.51
63500;BME280;49654;51.142;14.924;2022-07-22T02:38:16;99419.25;;;18.95;77.28
63500;BME280;49654;51.142;14.924;2022-07-22T02:40:43;99411.66;;;18.87;77.33
63500;BME280;49654;51.142;14.924;2022-07-22T02:43:10;99443.19;;;19.05;77.19
63500;BME280;49654;51.142;14.924;2022-07-22T02:45:37;99447.28;;;19.01;76.72
63500;BME280;49654;51.142;14.924;2022-07-22T02:48:05;99443.66;;;19.02;75.96
63500;BME280;49654;51.142;14.924;2022-07-22T02:50:32;99446.72;;;18.99;76.17
63500;BME280;49654;51.142;14.924;2022-07-22T02:53:00;99449.34;;;18.99;76.06
63500;BME280;49654;51.142;14.924;2022-07-22T02:55:27;99448.63;;;19.10;75.98
63500;BME280;49654;51.142;14.924;2022-07-22T02:57:54;99377.53;;;18.62;75.77
63500;BME280;49654;51.142;14.924;2022-07-22T03:00:21;99445.00;;;18.93;76.13
63500;BME280;49654;51.142;14.924;2022-07-22T03:02:48;99459.75;;;18.94;76.75
63500;BME280;49654;51.142;14.924;2022-07-22T03:05:16;99451.63;;;18.95;76.81
63500;BME280;49654;51.142;14.924;2022-07-22T03:07:43;99440.84;;;18.85;76.60
63500;BME280;49654;51.142;14.924;2022-07-22T03:10:10;99455.53;;;18.93;76.44
63500;BME280;49654;51.142;14.924;2022-07-22T03:12:37;99460.06;;;18.86;77.04
63500;BME280;49654;51.142;14.924;2022-07-22T03:15:05;99451.00;;;18.82;76.99
63500;BME280;49654;51.142;14.924;2022-07-22T03:17:33;99448.91;;;18.65;77.27
63500;BME280;49654;51.142;14.924;2022-07-22T03:20:01;99458.94;;;18.75;77.02
63500;BME280;49654;51.142;14.924;2022-07-22T03:22:29;99427.56;;;18.37;77.85
63500;BME280;49654;51.142;14.924;2022-07-22T03:24:56;99461.19;;;18.53;78.44
63500;BME280;49654;51.142;14.924;2022-07-22T03:27:23;99457.47;;;18.61;78.18
63500;BME280;49654;51.142;14.924;2022-07-22T03:29:50;99468.97;;;18.85;77.83
63500;BME280;49654;51.142;14.924;2022-07-22T03:32:17;99441.19;;;18.52;77.96
63500;BME280;49654;51.142;14.924;2022-07-22T03:34:44;99466.91;;;18.87;76.58
63500;BME280;49654;51.142;14.924;2022-07-22T03:37:11;99464.50;;;18.85;76.33
63500;BME280;49654;51.142;14.924;2022-07-22T03:39:40;99448.88;;;18.72;76.71
63500;BME280;49654;51.142;14.924;2022-07-22T03:42:06;99466.50;;;18.71;77.38
63500;BME280;49654;51.142;14.924;2022-07-22T03:44:33;99473.63;;;18.83;78.06
63500;BME280;49654;51.142;14.924;2022-07-22T03:47:00;99471.31;;;18.93;77.61
63500;BME280;49654;51.142;14.924;2022-07-22T03:49:27;99451.06;;;18.75;77.52
63500;BME280;49654;51.142;14.924;2022-07-22T03:51:55;99469.53;;;18.87;78.43
63500;BME280;49654;51.142;14.924;2022-07-22T03:54:22;99479.34;;;18.98;78.68
63500;BME280;49654;51.142;14.924;2022-07-22T03:56:50;99476.16;;;19.08;79.19
63500;BME280;49654;51.142;14.924;2022-07-22T03:59:17;99481.03;;;19.22;78.29
63500;BME280;49654;51.142;14.924;2022-07-22T04:01:44;99481.63;;;19.24;77.66
63500;BME280;49654;51.142;14.924;2022-07-22T04:04:11;99481.19;;;19.27;77.61
63500;BME280;49654;51.142;14.924;2022-07-22T04:06:38;99474.28;;;19.26;77.77
63500;BME280;49654;51.142;14.924;2022-07-22T04:09:05;99427.88;;;18.84;78.06
63500;BME280;49654;51.142;14.924;2022-07-22T04:11:32;99461.19;;;19.08;78.53
63500;BME280;49654;51.142;14.924;2022-07-22T04:14:00;99471.94;;;19.37;77.38
63500;BME280;49654;51.142;14.924;2022-07-22T04:16:27;99465.94;;;19.60;77.15
63500;BME280;49654;51.142;14.924;2022-07-22T04:18:54;99433.59;;;19.52;76.96
63500;BME280;49654;51.142;14.924;2022-07-22T04:21:21;99466.22;;;19.82;77.96
63500;BME280;49654;51.142;14.924;2022-07-22T04:23:47;99457.53;;;19.93;78.88
63500;BME280;49654;51.142;14.924;2022-07-22T04:26:15;99466.59;;;19.97;78.98
63500;BME280;49654;51.142;14.924;2022-07-22T04:28:42;99458.22;;;19.76;80.09
63500;BME280;49654;51.142;14.924;2022-07-22T04:31:10;99451.69;;;19.91;79.70
63500;BME280;49654;51.142;14.924;2022-07-22T04:33:37;99459.94;;;20.06;79.91
63500;BME280;49654;51.142;14.924;2022-07-22T04:36:04;99468.56;;;20.13;79.63
63500;BME280;49654;51.142;14.924;2022-07-22T04:38:31;99467.63;;;20.19;79.20
63500;BME280;49654;51.142;14.924;2022-07-22T04:40:58;99466.25;;;20.29;79.05
63500;BME280;49654;51.142;14.924;2022-07-22T04:43:25;99471.41;;;20.35;78.89
63500;BME280;49654;51.142;14.924;2022-07-22T04:45:52;99465.78;;;20.32;78.84
63500;BME280;49654;51.142;14.924;2022-07-22T04:48:21;99473.22;;;20.46;78.83
63500;BME280;49654;51.142;14.924;2022-07-22T04:50:48;99469.56;;;20.71;77.17
63500;BME280;49654;51.142;14.924;2022-07-22T04:53:15;99467.94;;;20.82;76.51
63500;BME280;49654;51.142;14.924;2022-07-22T04:55:42;99456.06;;;20.96;73.59
63500;BME280;49654;51.142;14.924;2022-07-22T04:58:09;99464.75;;;21.08;72.28
63500;BME280;49654;51.142;14.924;2022-07-22T05:00:36;99458.69;;;20.96;72.56
63500;BME280;49654;51.142;14.924;2022-07-22T05:03:03;99472.22;;;20.99;72.59
63500;BME280;49654;51.142;14.924;2022-07-22T05:05:31;99464.16;;;21.06;72.15
63500;BME280;49654;51.142;14.924;2022-07-22T05:07:58;99476.53;;;21.17;71.34
63500;BME280;49654;51.142;14.924;2022-07-22T05:10:25;99453.88;;;21.21;71.79
63500;BME280;49654;51.142;14.924;2022-07-22T05:12:53;99456.28;;;21.23;71.02
63500;BME280;49654;51.142;14.924;2022-07-22T05:15:20;99425.59;;;21.05;70.65
63500;BME280;49654;51.142;14.924;2022-07-22T05:17:47;99441.88;;;21.14;71.24
63500;BME280;49654;51.142;14.924;2022-07-22T05:20:13;99454.38;;;21.47;70.39
63500;BME280;49654;51.142;14.924;2022-07-22T05:22:43;99460.38;;;21.59;71.17
63500;BME280;49654;51.142;14.924;2022-07-22T05:25:10;99464.56;;;21.55;69.78
63500;BME280;49654;51.142;14.924;2022-07-22T05:27:37;99452.06;;;21.67;69.48
63500;BME280;49654;51.142;14.924;2022-07-22T05:30:05;99456.13;;;21.75;68.20
63500;BME280;49654;51.142;14.924;2022-07-22T05:32:32;99462.31;;;21.97;68.67
63500;BME280;49654;51.142;14.924;2022-07-22T05:34:59;99462.00;;;21.94;66.91
63500;BME280;49654;51.142;14.924;2022-07-22T05:37:26;99454.28;;;21.92;66.30
63500;BME280;49654;51.142;14.924;2022-07-22T05:39:54;99430.00;;;21.95;66.45
63500;BME280;49654;51.142;14.924;2022-07-22T05:42:21;99442.28;;;22.02;66.09
63500;BME280;49654;51.142;14.924;2022-07-22T05:44:48;99441.97;;;21.98;65.54
63500;BME280;49654;51.142;14.924;2022-07-22T05:47:15;99473.06;;;22.24;66.00
63500;BME280;49654;51.142;14.924;2022-07-22T05:49:42;99465.66;;;22.10;66.32
63500;BME280;49654;51.142;14.924;2022-07-22T05:52:08;99470.00;;;22.33;65.94
63500;BME280;49654;51.142;14.924;2022-07-22T05:54:35;99462.16;;;22.21;64.31
63500;BME280;49654;51.142;14.924;2022-07-22T05:57:04;99468.69;;;22.35;63.58
63500;BME280;49654;51.142;14.924;2022-07-22T05:59:30;99449.88;;;22.32;61.67
63500;BME280;49654;51.142;14.924;2022-07-22T06:01:57;99476.97;;;22.61;61.84
63500;BME280;49654;51.142;14.924;2022-07-22T06:04:24;99424.06;;;22.22;61.88
63500;BME280;49654;51.142;14.924;2022-07-22T06:06:51;99477.78;;;22.61;61.93
63500;BME280;49654;51.142;14.924;2022-07-22T06:09:18;99453.88;;;22.56;62.17
63500;BME280;49654;51.142;14.924;2022-07-22T06:11:45;99477.59;;;22.68;61.58
63500;BME280;49654;51.142;14.924;2022-07-22T06:14:13;99476.16;;;22.82;61.82
63500;BME280;49654;51.142;14.924;2022-07-22T06:16:40;99482.47;;;22.98;61.27
63500;BME280;49654;51.142;14.924;2022-07-22T06:19:07;99472.94;;;22.97;60.76
63500;BME280;49654;51.142;14.924;2022-07-22T06:21:34;99467.44;;;23.04;59.91
63500;BME280;49654;51.142;14.924;2022-07-22T06:24:02;99465.75;;;23.19;60.11
63500;BME280;49654;51.142;14.924;2022-07-22T06:26:28;99469.50;;;23.23;59.12
63500;BME280;49654;51.142;14.924;2022-07-22T06:28:55;99480.44;;;23.32;59.68
63500;BME280;49654;51.142;14.924;2022-07-22T06:31:24;99484.84;;;23.48;58.31
63500;BME280;49654;51.142;14.924;2022-07-22T06:33:50;99459.94;;;23.49;58.88
63500;BME280;49654;51.142;14.924;2022-07-22T06:36:17;99478.00;;;23.53;57.72
63500;BME280;49654;51.142;14.924;2022-07-22T06:38:44;99478.72;;;23.70;57.23
63500;BME280;49654;51.142;14.924;2022-07-22T06:41:11;99471.81;;;23.69;57.08
63500;BME280;49654;51.142;14.924;2022-07-22T06:43:39;99444.19;;;23.65;57.00
63500;BME280;49654;51.142;14.924;2022-07-22T06:46:06;99448.94;;;23.95;56.69
63500;BME280;49654;51.142;14.924;2022-07-22T06:48:34;99446.31;;;24.00;55.29
63500;BME280;49654;51.142;14.924;2022-07-22T06:51:01;99463.84;;;24.06;55.75
63500;BME280;49654;51.142;14.924;2022-07-22T06:53:28;99465.69;;;24.06;55.30
63500;BME280;49654;51.142;14.924;2022-07-22T06:55:55;99473.94;;;24.09;55.08
63500;BME280;49654;51.142;14.924;2022-07-22T06:58:22;99471.66;;;24.28;55.26
63500;BME280;49654;51.142;14.924;2022-07-22T07:00:49;99469.56;;;24.30;55.24
63500;BME280;49654;51.142;14.924;2022-07-22T07:03:16;99470.38;;;24.36;55.32
63500;BME280;49654;51.142;14.924;2022-07-22T07:05:45;99472.13;;;24.57;54.95
63500;BME280;49654;51.142;14.924;2022-07-22T07:08:12;99460.94;;;24.50;53.87
63500;BME280;49654;51.142;14.924;2022-07-22T07:10:39;99450.84;;;24.47;54.69
63500;BME280;49654;51.142;14.924;2022-07-22T07:13:05;99465.59;;;24.80;54.73
63500;BME280;49654;51.142;14.924;2022-07-22T07:15:32;99456.47;;;24.61;53.41
63500;BME280;49654;51.142;14.924;2022-07-22T07:17:59;99464.72;;;24.64;54.24
63500;BME280;49654;51.142;14.924;2022-07-22T07:20:26;99465.53;;;24.65;52.79
63500;BME280;49654;51.142;14.924;2022-07-22T07:22:55;99453.53;;;24.62;52.78
63500;BME280;49654;51.142;14.924;2022-07-22T07:25:22;99472.50;;;24.81;53.03
63500;BME280;49654;51.142;14.924;2022-07-22T07:27:49;99467.00;;;25.08;53.11
63500;BME280;49654;51.142;14.924;2022-07-22T07:30:16;99457.22;;;25.14;52.83
63500;BME280;49654;51.142;14.924;2022-07-22T07:32:44;99461.75;;;25.23;52.44
63500;BME280;49654;51.142;14.924;2022-07-22T07:35:11;99463.34;;;25.30;52.03
63500;BME280;49654;51.142;14.924;2022-07-22T07:37:38;99463.84;;;25.16;51.52
63500;BME280;49654;51.142;14.924;2022-07-22T07:40:07;99466.53;;;25.37;52.84
63500;BME280;49654;51.142;14.924;2022-07-22T07:42:34;99468.94;;;25.48;50.21
63500;BME280;49654;51.142;14.924;2022-07-22T07:45:02;99463.09;;;25.36;50.96
63500;BME280;49654;51.142;14.924;2022-07-22T07:47:30;99464.69;;;25.37;51.24
63500;BME280;49654;51.142;14.924;2022-07-22T07:49:56;99472.13;;;25.51;50.39
63500;BME280;49654;51.142;14.924;2022-07-22T07:52:26;99465.47;;;25.33;50.42
63500;BME280;49654;51.142;14.924;2022-07-22T07:54:54;99470.00;;;25.68;50.32
63500;BME280;49654;51.142;14.924;2022-07-22T07:57:22;99465.22;;;25.55;49.95
63500;BME280;49654;51.142;14.924;2022-07-22T07:59:49;99466.03;;;25.76;50.66
63500;BME280;49654;51.142;14.924;2022-07-22T08:02:16;99472.97;;;25.92;50.67
63500;BME280;49654;51.142;14.924;2022-07-22T08:04:43;99473.47;;;25.94;50.50
63500;BME280;49654;51.142;14.924;2022-07-22T08:07:10;99469.19;;;26.03;49.29
63500;BME280;49654;51.142;14.924;2022-07-22T08:09:37;99446.88;;;26.04;49.25
63500;BME280;49654;51.142;14.924;2022-07-22T08:12:05;99469.19;;;26.18;49.83
63500;BME280;49654;51.142;14.924;2022-07-22T08:14:33;99458.53;;;26.18;47.59
63500;BME280;49654;51.142;14.924;2022-07-22T08:17:01;99460.13;;;26.19;48.95
63500;BME280;49654;51.142;14.924;2022-07-22T08:19:28;99449.69;;;26.33;48.24
63500;BME280;49654;51.142;14.924;2022-07-22T08:21:55;99464.41;;;26.15;48.49
63500;BME280;49654;51.142;14.924;2022-07-22T08:24:22;99460.84;;;26.51;48.34
63500;BME280;49654;51.142;14.924;2022-07-22T08:26:49;99457.34;;;26.65;47.50
63500;BME280;49654;51.142;14.924;2022-07-22T08:29:16;99463.00;;;26.33;47.95
63500;BME280;49654;51.142;14.924;2022-07-22T08:31:44;99448.41;;;26.26;48.76
63500;BME280;49654;51.142;14.924;2022-07-22T08:34:11;99464.31;;;26.56;49.03
63500;BME280;49654;51.142;14.924;2022-07-22T08:36:38;99458.06;;;26.86;47.19
63500;BME280;49654;51.142;14.924;2022-07-22T08:39:05;99457.81;;;26.83;47.20
63500;BME280;49654;51.142;14.924;2022-07-22T08:41:34;99447.09;;;26.93;47.13
63500;BME280;49654;51.142;14.924;2022-07-22T08:44:03;99442.31;;;26.85;46.72
63500;BME280;49654;51.142;14.924;2022-07-22T08:46:30;99442.88;;;26.87;44.60
63500;BME280;49654;51.142;14.924;2022-07-22T08:48:59;99455.31;;;26.96;45.01
63500;BME280;49654;51.142;14.924;2022-07-22T08:51:27;99457.69;;;27.03;45.97
63500;BME280;49654;51.142;14.924;2022-07-22T08:53:54;99455.19;;;27.22;44.78
63500;BME280;49654;51.142;14.924;2022-07-22T08:56:21;99455.16;;;27.27;45.77
63500;BME280;49654;51.142;14.924;2022-07-22T08:58:48;99435.84;;;27.45;46.00
63500;BME280;49654;51.142;14.924;2022-07-22T09:01:16;99438.31;;;27.71;46.34
63500;BME280;49654;51.142;14.924;2022-07-22T09:03:45;99438.53;;;28.04;45.15
63500;BME280;49654;51.142;14.924;2022-07-22T09:06:14;99437.38;;;27.86;43.50
63500;BME280;49654;51.142;14.924;2022-07-22T09:08:51;99440.16;;;28.00;45.58
63500;BME280;49654;51.142;14.924;2022-07-22T09:11:20;99442.56;;;28.01;43.26
63500;BME280;49654;51.142;14.924;2022-07-22T09:13:47;99428.28;;;27.87;44.72
63500;BME280;49654;51.142;14.924;2022-07-22T09:16:15;99443.81;;;28.09;42.74
63500;BME280;49654;51.142;14.924;2022-07-22T09:18:46;99434.69;;;28.15;43.42
63500;BME280;49654;51.142;14.924;2022-07-22T09:21:15;99443.53;;;28.39;44.10
63500;BME280;49654;51.142;14.924;2022-07-22T09:23:42;99420.16;;;28.50;40.11
63500;BME280;49654;51.142;14.924;2022-07-22T09:26:29;99409.06;;;28.62;40.51
63500;BME280;49654;51.142;14.924;2022-07-22T09:28:57;99440.94;;;29.15;40.83
63500;BME280;49654;51.142;14.924;2022-07-22T09:31:25;99431.72;;;29.40;40.24
63500;BME280;49654;51.142;14.924;2022-07-22T09:33:53;99429.53;;;29.42;40.28
63500;BME280;49654;51.142;14.924;2022-07-22T09:36:22;99429.06;;;29.73;40.21
63500;BME280;49654;51.142;14.924;2022-07-22T09:38:49;99431.53;;;29.50;39.43
63500;BME280;49654;51.142;14.924;2022-07-22T09:41:16;99425.38;;;29.36;39.36
63500;BME280;49654;51.142;14.924;2022-07-22T09:43:44;99391.34;;;28.85;39.79
63500;BME280;49654;51.142;14.924;2022-07-22T09:46:11;99428.66;;;29.14;40.93
63500;BME280;49654;51.142;14.924;2022-07-22T09:48:39;99429.97;;;29.49;39.49
63500;BME280;49654;51.142;14.924;2022-07-22T09:51:06;99404.06;;;29.31;39.71
63500;BME280;49654;51.142;14.924;2022-07-22T09:53:35;99429.09;;;29.86;39.23
63500;BME280;49654;51.142;14.924;2022-07-22T09:56:04;99428.53;;;30.17;38.47
63500;BME280;49654;51.142;14.924;2022-07-22T09:58:32;99428.59;;;30.53;38.00
63500;BME280;49654;51.142;14.924;2022-07-22T10:01:04;99364.25;;;30.17;37.16
63500;BME280;49654;51.142;14.924;2022-07-22T10:03:33;99430.28;;;30.63;36.78
63500;BME280;49654;51.142;14.924;2022-07-22T10:06:04;99423.84;;;31.36;35.41
63500;BME280;49654;51.142;14.924;2022-07-22T10:08:33;99421.63;;;31.61;35.07
63500;BME280;49654;51.142;14.924;2022-07-22T10:11:04;99408.09;;;32.72;33.25
63500;BME280;49654;51.142;14.924;2022-07-22T10:13:32;99406.34;;;32.50;32.92
63500;BME280;49654;51.142;14.924;2022-07-22T10:16:00;99412.97;;;30.83;36.61
63500;BME280;49654;51.142;14.924;2022-07-22T10:18:27;99411.50;;;31.13;35.42
63500;BME280;49654;51.142;14.924;2022-07-22T10:21:01;99407.03;;;33.07;32.13
63500;BME280;49654;51.142;14.924;2022-07-22T10:23:28;99414.00;;;33.81;31.29
63500;BME280;49654;51.142;14.924;2022-07-22T10:25:57;99390.22;;;34.51;29.92
63500;BME280;49654;51.142;14.924;2022-07-22T10:28:28;99391.63;;;35.11;29.52
63500;BME280;49654;51.142;14.924;2022-07-22T10:31:17;99384.84;;;36.73;27.15
63500;BME280;49654;51.142;14.924;2022-07-22T10:33:45;99386.28;;;36.18;27.00
63500;BME280;49654;51.142;14.924;2022-07-22T10:36:14;99349.91;;;33.66;29.48
63500;BME280;49654;51.142;14.924;2022-07-22T10:39:02;99390.22;;;31.92;32.97
63500;BME280;49654;51.142;14.924;2022-07-22T10:41:34;99366.56;;;30.96;34.42
63500;BME280;49654;51.142;14.924;2022-07-22T10:44:04;99396.81;;;31.10;36.65
63500;BME280;49654;51.142;14.924;2022-07-22T10:46:51;99392.66;;;31.49;35.81
63500;BME280;49654;51.142;14.924;2022-07-22T10:49:19;99400.22;;;31.47;35.10
63500;BME280;49654;51.142;14.924;2022-07-22T10:52:09;99384.53;;;31.32;35.02
63500;BME280;49654;51.142;14.924;2022-07-22T10:55:15;99402.63;;;31.49;35.38
63500;BME280;49654;51.142;14.924;2022-07-22T10:57:42;99383.00;;;31.26;36.10
63500;BME280;49654;51.142;14.924;2022-07-22T11:00:10;99392.13;;;31.38;33.97
63500;BME280;49654;51.142;14.924;2022-07-22T11:02:38;99397.53;;;31.25;34.82
63500;BME280;49654;51.142;14.924;2022-07-22T11:05:07;99390.09;;;30.99;34.58
63500;BME280;49654;51.142;14.924;2022-07-22T11:07:34;99389.75;;;30.78;34.69
63500;BME280;49654;51.142;14.924;2022-07-22T11:10:10;99394.44;;;31.85;33.84
63500;BME280;49654;51.142;14.924;2022-07-22T11:12:38;99383.13;;;34.38;30.03
63500;BME280;49654;51.142;14.924;2022-07-22T11:15:06;99366.69;;;34.60;27.95
63500;BME280;49654;51.142;14.924;2022-07-22T11:17:35;99383.81;;;32.28;32.17
63500;BME280;49654;51.142;14.924;2022-07-22T11:20:03;99396.63;;;31.07;33.93
63500;BME280;49654;51.142;14.924;2022-07-22T11:22:32;99384.56;;;30.46;35.19
63500;BME280;49654;51.142;14.924;2022-07-22T11:25:00;99394.41;;;29.95;35.59
63500;BME280;49654;51.142;14.924;2022-07-22T11:27:27;99391.56;;;30.69;34.79
63500;BME280;49654;51.142;14.924;2022-07-22T11:29:54;99383.63;;;30.78;34.55
63500;BME280;49654;51.142;14.924;2022-07-22T11:32:23;99384.91;;;31.79;32.74
63500;BME280;49654;51.142;14.924;2022-07-22T11:34:52;99383.94;;;31.21;33.66
63500;BME280;49654;51.142;14.924;2022-07-22T11:37:20;99372.91;;;30.78;34.57
63500;BME280;49654;51.142;14.924;2022-07-22T11:39:49;99361.56;;;34.38;29.75
63500;BME280;49654;51.142;14.924;2022-07-22T11:42:16;99366.34;;;37.63;24.41
63500;BME280;49654;51.142;14.924;2022-07-22T11:44:42;99355.00;;;37.57;23.88
63500;BME280;49654;51.142;14.924;2022-07-22T11:47:10;99360.91;;;36.47;26.77
63500;BME280;49654;51.142;14.924;2022-07-22T11:49:38;99363.03;;;37.54;25.01
63500;BME280;49654;51.142;14.924;2022-07-22T11:52:09;99365.19;;;37.64;25.90
63500;BME280;49654;51.142;14.924;2022-07-22T11:54:37;99366.09;;;37.08;25.31
63500;BME280;49654;51.142;14.924;2022-07-22T11:57:05;99364.88;;;38.32;23.28
63500;BME280;49654;51.142;14.924;2022-07-22T11:59:33;99364.09;;;40.05;21.03
63500;BME280;49654;51.142;14.924;2022-07-22T12:02:00;99349.94;;;40.83;20.01
63500;BME280;49654;51.142;14.924;2022-07-22T12:04:29;99352.19;;;41.55;19.09
63500;BME280;49654;51.142;14.924;2022-07-22T12:06:58;99354.03;;;41.44;19.53
63500;BME280;49654;51.142;14.924;2022-07-22T12:09:30;99346.06;;;42.35;19.35
63500;BME280;49654;51.142;14.924;2022-07-22T12:11:57;99330.22;;;43.94;16.83
63500;BME280;49654;51.142;14.924;2022-07-22T12:14:25;99350.59;;;43.54;16.72
63500;BME280;49654;51.142;14.924;2022-07-22T12:16:54;99338.44;;;42.90;17.21
63500;BME280;49654;51.142;14.924;2022-07-22T12:19:22;99329.50;;;44.78;15.81
63500;BME280;49654;51.142;14.924;2022-07-22T12:21:52;99332.28;;;44.67;16.31
63500;BME280;49654;51.142;14.924;2022-07-22T12:24:31;99340.75;;;42.81;18.55
63500;BME280;49654;51.142;14.924;2022-07-22T12:26:59;99331.84;;;43.66;17.50
63500;BME280;49654;51.142;14.924;2022-07-22T12:29:29;99329.72;;;45.05;15.56
63500;BME280;49654;51.142;14.924;2022-07-22T12:31:58;99329.91;;;42.05;18.47
63500;BME280;49654;51.142;14.924;2022-07-22T12:34:34;99336.59;;;41.11;19.29
63500;BME280;49654;51.142;14.924;2022-07-22T12:37:15;99325.63;;;43.05;17.57
63500;BME280;49654;51.142;14.924;2022-07-22T12:39:57;99320.97;;;44.61;16.32
63500;BME280;49654;51.142;14.924;2022-07-22T12:42:26;99299.78;;;46.65;13.76
63500;BME280;49654;51.142;14.924;2022-07-22T12:44:59;99296.97;;;45.73;15.30
63500;BME280;49654;51.142;14.924;2022-07-22T12:47:44;99282.03;;;47.43;13.64
63500;BME280;49654;51.142;14.924;2022-07-22T12:50:19;99310.78;;;46.65;14.32
63500;BME280;49654;51.142;14.924;2022-07-22T12:52:48;99299.97;;;44.37;15.38
63500;BME280;49654;51.142;14.924;2022-07-22T12:55:16;99317.28;;;41.27;19.02